Time;durP1;ratioP1;P1;durP2;ratioP2;P2;SDS_P1;SDS_P2;PMS_P1;PMS_P2;Temp;Humidity;BMP_temperature;BMP_pressure;BME280_temperature;BME280_humidity;BME280_pressure;Samples;Min_cycle;Max_cycle;Signal;HPM_P1;HPM_P2
2023/09/29 00:00:13;;;;;;;14.40;7.07;;;16.10;99.90;;;;;;5032223;28;20370;-82
2023/09/29 00:02:39;;;;;;;11.13;5.97;;;16.10;99.90;;;;;;5032282;28;20057;-82
2023/09/29 00:05:06;;;;;;;13.52;6.10;;;16.10;99.90;;;;;;5032138;28;20050;-82
2023/09/29 00:07:31;;;;;;;15.52;6.45;;;16.20;99.90;;;;;;5031496;28;20049;-83
2023/09/29 00:09:57;;;;;;;17.38;5.65;;;16.10;99.90;;;;;;5030972;28;20507;-82
2023/09/29 00:12:23;;;;;;;11.95;5.88;;;16.10;99.90;;;;;;5032034;28;20532;-82
2023/09/29 00:14:48;;;;;;;12.88;6.07;;;16.10;99.90;;;;;;5032338;28;20060;-82
2023/09/29 00:17:14;;;;;;;13.57;6.22;;;16.10;99.90;;;;;;5031950;28;20164;-82
2023/09/29 00:19:39;;;;;;;10.40;5.85;;;16.10;99.90;;;;;;5030512;28;20086;-82
2023/09/29 00:22:05;;;;;;;8.70;5.60;;;16.10;99.90;;;;;;5030764;28;20073;-82
2023/09/29 00:24:31;;;;;;;12.43;6.38;;;16.10;99.90;;;;;;5032273;28;20045;-81
2023/09/29 00:26:56;;;;;;;17.75;7.22;;;16.50;99.90;;;;;;5032180;28;20124;-82
2023/09/29 00:29:22;;;;;;;16.67;6.38;;;16.10;99.90;;;;;;5014768;28;20508;-82
2023/09/29 00:31:48;;;;;;;12.77;6.95;;;16.10;99.90;;;;;;5035218;28;20083;-82
2023/09/29 00:34:13;;;;;;;10.25;5.53;;;16.10;99.90;;;;;;5035183;28;20041;-82
2023/09/29 00:36:39;;;;;;;13.63;6.05;;;16.10;99.90;;;;;;5035486;28;20077;-81
2023/09/29 00:39:08;;;;;;;11.50;6.05;;;16.10;99.90;;;;;;5035257;28;20383;-82
2023/09/29 00:41:33;;;;;;;14.15;6.43;;;16.10;99.90;;;;;;5035171;28;20053;-82
2023/09/29 00:43:59;;;;;;;16.65;6.63;;;16.10;99.90;;;;;;5035702;28;20184;-82
2023/09/29 00:46:25;;;;;;;17.42;7.55;;;16.20;99.90;;;;;;5035446;28;20049;-82
2023/09/29 00:48:52;;;;;;;17.42;6.97;;;16.10;99.90;;;;;;5035153;28;20042;-82
2023/09/29 00:51:21;;;;;;;15.35;6.82;;;16.10;99.90;;;;;;5035587;28;20045;-82
2023/09/29 00:53:48;;;;;;;14.77;6.72;;;16.20;99.90;;;;;;5035331;28;20390;-82
2023/09/29 00:56:14;;;;;;;15.13;7.43;;;16.20;99.90;;;;;;5035222;28;20107;-83
2023/09/29 00:58:42;;;;;;;16.15;6.90;;;16.10;99.90;;;;;;5035170;28;20129;-82
2023/09/29 01:01:08;;;;;;;13.82;6.32;;;16.20;99.90;;;;;;5034866;28;20054;-82
2023/09/29 01:03:34;;;;;;;16.52;7.75;;;16.10;99.90;;;;;;5034928;28;20080;-83
2023/09/29 01:06:00;;;;;;;12.73;6.10;;;16.10;99.90;;;;;;5035879;28;20049;-82
2023/09/29 01:08:29;;;;;;;16.13;6.47;;;16.10;99.90;;;;;;5035198;28;20045;-82
2023/09/29 01:10:55;;;;;;;11.02;6.65;;;16.10;99.90;;;;;;5034026;28;20463;-82
2023/09/29 01:13:22;;;;;;;15.40;6.78;;;16.10;99.90;;;;;;5034757;28;20121;-82
2023/09/29 01:15:49;;;;;;;9.70;5.88;;;16.10;99.90;;;;;;5035274;28;20114;-82
2023/09/29 01:18:16;;;;;;;15.60;5.53;;;16.10;99.90;;;;;;5035202;28;20390;-82
2023/09/29 01:20:43;;;;;;;10.98;6.68;;;16.10;99.90;;;;;;5034336;28;20089;-82
2023/09/29 01:23:09;;;;;;;14.95;6.75;;;16.10;99.90;;;;;;5034677;28;20049;-81
2023/09/29 01:25:36;;;;;;;9.45;6.60;;;16.10;99.90;;;;;;5034586;28;20045;-82
2023/09/29 01:28:13;;;;;;;13.25;6.55;;;16.10;99.90;;;;;;5034590;28;20046;-82
2023/09/29 01:30:43;;;;;;;13.75;7.07;;;16.10;99.90;;;;;;5034959;28;20048;-82
2023/09/29 01:33:08;;;;;;;12.38;6.88;;;16.00;99.90;;;;;;5034405;28;20054;-82
2023/09/29 01:35:34;;;;;;;17.58;7.57;;;16.00;99.90;;;;;;5034507;28;20059;-82
2023/09/29 01:38:00;;;;;;;12.95;7.07;;;16.00;99.90;;;;;;5033142;28;20053;-82
2023/09/29 01:40:26;;;;;;;15.98;6.88;;;16.00;99.90;;;;;;5035022;28;20045;-82
2023/09/29 01:42:53;;;;;;;11.50;6.20;;;16.00;99.90;;;;;;5033854;28;20049;-82
2023/09/29 01:45:21;;;;;;;11.98;6.75;;;16.00;99.90;;;;;;5034245;28;20120;-82
2023/09/29 01:47:48;;;;;;;17.83;6.57;;;16.00;99.90;;;;;;5034393;28;20096;-82
2023/09/29 01:50:16;;;;;;;14.25;7.20;;;16.00;99.90;;;;;;5033487;28;20052;-81
2023/09/29 01:52:43;;;;;;;10.70;5.70;;;16.00;99.90;;;;;;5034120;28;20052;-83
2023/09/29 01:55:14;;;;;;;11.05;7.45;;;16.10;99.90;;;;;;5033995;28;20076;-82
2023/09/29 01:57:41;;;;;;;19.10;7.57;;;16.00;99.90;;;;;;5034313;28;20126;-83
2023/09/29 02:00:11;;;;;;;15.95;7.28;;;16.10;99.90;;;;;;5033942;28;20048;-82
2023/09/29 02:02:37;;;;;;;11.43;6.63;;;16.10;99.90;;;;;;5033638;28;20495;-83
2023/09/29 02:05:03;;;;;;;20.60;7.57;;;16.80;99.90;;;;;;5032544;28;20050;-82
2023/09/29 02:07:29;;;;;;;8.90;7.03;;;16.10;99.90;;;;;;5033739;28;20095;-82
2023/09/29 02:09:55;;;;;;;16.60;7.28;;;16.10;99.90;;;;;;5032599;28;20049;-82
2023/09/29 02:12:21;;;;;;;12.93;6.43;;;16.10;99.90;;;;;;5033970;28;20350;-82
2023/09/29 02:14:47;;;;;;;12.35;6.22;;;16.10;99.90;;;;;;5033637;28;20048;-82
2023/09/29 02:17:13;;;;;;;10.88;5.68;;;16.10;99.90;;;;;;5033739;28;20057;-82
2023/09/29 02:19:38;;;;;;;11.57;6.45;;;16.10;99.90;;;;;;5033966;28;20041;-83
2023/09/29 02:22:07;;;;;;;17.13;6.85;;;16.10;99.90;;;;;;5033661;28;20060;-82
2023/09/29 02:24:33;;;;;;;12.80;6.88;;;16.10;99.90;;;;;;5033742;28;20050;-83
2023/09/29 02:26:59;;;;;;;15.80;6.15;;;16.10;99.90;;;;;;5032589;28;20049;-82
2023/09/29 02:29:27;;;;;;;13.55;6.35;;;16.20;99.90;;;;;;5032961;28;20476;-83
2023/09/29 02:31:55;;;;;;;11.30;6.43;;;16.20;99.90;;;;;;5033161;28;20050;-82
2023/09/29 02:34:23;;;;;;;14.52;6.07;;;16.20;99.90;;;;;;5033243;28;20076;-81
2023/09/29 02:36:49;;;;;;;10.85;6.18;;;16.20;99.90;;;;;;5033288;28;20054;-82
2023/09/29 02:39:15;;;;;;;13.50;6.57;;;16.20;99.90;;;;;;5031683;28;20053;-83
2023/09/29 02:41:40;;;;;;;11.32;6.18;;;16.20;99.90;;;;;;5033383;28;20067;-83
2023/09/29 02:44:07;;;;;;;10.35;5.60;;;16.20;99.90;;;;;;5033053;28;20136;-83
2023/09/29 02:46:33;;;;;;;15.57;5.97;;;16.20;99.90;;;;;;5033393;28;20089;-83
2023/09/29 02:48:59;;;;;;;14.35;7.38;;;16.30;99.90;;;;;;5033199;28;20048;-83
2023/09/29 02:51:24;;;;;;;15.77;6.63;;;16.30;99.90;;;;;;5033076;28;20049;-82
2023/09/29 02:53:51;;;;;;;10.65;6.30;;;16.30;99.90;;;;;;5032150;28;20128;-79
2023/09/29 02:56:17;;;;;;;12.77;5.93;;;16.30;99.90;;;;;;5033348;28;20064;-87
2023/09/29 02:58:46;;;;;;;14.43;6.60;;;16.30;99.90;;;;;;5033099;28;20053;-82
2023/09/29 03:01:16;;;;;;;12.73;6.80;;;16.30;99.90;;;;;;5033150;28;20049;-88
2023/09/29 03:03:44;;;;;;;10.98;5.75;;;16.30;99.90;;;;;;5031851;28;20050;-82
2023/09/29 03:06:20;;;;;;;11.98;6.10;;;16.30;99.90;;;;;;5032884;28;20045;-84
2023/09/29 03:08:49;;;;;;;13.30;7.03;;;16.30;99.90;;;;;;5032931;28;20045;-84
2023/09/29 03:11:16;;;;;;;15.30;6.75;;;16.30;99.90;;;;;;5032063;28;20045;-87
2023/09/29 03:13:43;;;;;;;10.25;5.70;;;16.30;99.90;;;;;;5033086;28;20045;-84
2023/09/29 03:16:09;;;;;;;11.50;6.25;;;16.30;99.90;;;;;;5015212;28;20089;-83
2023/09/29 03:18:35;;;;;;;11.45;6.85;;;16.30;99.90;;;;;;5032717;28;20484;-84
2023/09/29 03:21:01;;;;;;;10.32;5.93;;;16.40;99.90;;;;;;5032390;28;20076;-86
2023/09/29 03:23:28;;;;;;;12.95;5.53;;;16.30;99.90;;;;;;5032487;28;20049;-84
2023/09/29 03:25:55;;;;;;;11.30;6.78;;;16.30;99.90;;;;;;5032237;28;20511;-85
2023/09/29 03:28:21;;;;;;;9.88;6.00;;;16.40;99.90;;;;;;5032361;28;20041;-83
2023/09/29 03:30:46;;;;;;;11.60;6.55;;;16.40;99.90;;;;;;5032514;28;20072;-83
2023/09/29 03:33:13;;;;;;;9.20;5.90;;;16.40;99.90;;;;;;5032118;28;20434;-83
2023/09/29 03:35:40;;;;;;;12.98;6.18;;;16.40;99.90;;;;;;5032487;28;20378;-88
2023/09/29 03:38:06;;;;;;;13.13;5.28;;;16.40;99.90;;;;;;5032607;28;20096;-85
2023/09/29 03:40:32;;;;;;;11.52;6.40;;;16.40;99.90;;;;;;5032695;28;20060;-84
2023/09/29 03:42:58;;;;;;;11.10;6.18;;;16.40;99.90;;;;;;5032334;28;20093;-83
2023/09/29 03:45:25;;;;;;;13.57;5.93;;;17.20;99.90;;;;;;5032260;28;20052;-85
2023/09/29 03:47:51;;;;;;;7.88;5.22;;;16.50;99.90;;;;;;5031671;28;20072;-88
2023/09/29 03:50:17;;;;;;;12.57;6.32;;;16.50;99.90;;;;;;5032272;28;20500;-86
2023/09/29 03:52:45;;;;;;;16.38;5.50;;;16.50;99.90;;;;;;5032336;28;20046;-82
2023/09/29 03:55:12;;;;;;;9.05;5.00;;;16.50;99.90;;;;;;5032380;28;20102;-84
2023/09/29 03:57:41;;;;;;;9.73;5.45;;;16.50;99.90;;;;;;5031375;28;20127;-81
2023/09/29 04:00:11;;;;;;;8.20;6.15;;;16.60;99.90;;;;;;5032281;28;20085;-81
2023/09/29 04:02:36;;;;;;;11.38;6.05;;;16.50;99.90;;;;;;5032367;28;20092;-84
2023/09/29 04:05:03;;;;;;;9.73;5.20;;;16.60;99.90;;;;;;5032720;28;20107;-84
2023/09/29 04:07:29;;;;;;;12.82;6.00;;;16.60;99.90;;;;;;5036527;28;20107;-84
2023/09/29 04:09:55;;;;;;;10.63;5.40;;;16.60;99.90;;;;;;5035202;28;20053;-83
2023/09/29 04:12:21;;;;;;;12.95;5.57;;;16.60;99.90;;;;;;5035912;28;20055;-86
2023/09/29 04:14:46;;;;;;;14.90;5.68;;;16.60;99.90;;;;;;5036390;28;20048;-84
2023/09/29 04:17:13;;;;;;;7.50;5.75;;;16.70;99.90;;;;;;5036157;28;20525;-84
2023/09/29 04:19:38;;;;;;;16.27;7.13;;;16.70;99.90;;;;;;5036164;28;20091;-84
2023/09/29 04:22:04;;;;;;;13.43;6.35;;;16.70;99.90;;;;;;5034867;28;20378;-83
2023/09/29 04:24:30;;;;;;;8.60;4.40;;;16.70;99.90;;;;;;5035995;28;20052;-85
2023/09/29 04:26:56;;;;;;;15.15;6.50;;;16.70;99.90;;;;;;5035905;28;20037;-81
2023/09/29 04:29:21;;;;;;;13.25;6.57;;;16.70;99.90;;;;;;5035758;28;20619;-85
2023/09/29 04:31:47;;;;;;;12.05;6.07;;;16.80;99.90;;;;;;5035911;28;20049;-84
2023/09/29 04:34:13;;;;;;;11.05;6.03;;;16.80;99.90;;;;;;5035566;28;20053;-83
2023/09/29 04:36:40;;;;;;;13.23;6.80;;;16.80;99.90;;;;;;5035628;28;20084;-84
2023/09/29 04:39:06;;;;;;;11.23;6.38;;;16.80;99.90;;;;;;5034159;28;20057;-83
2023/09/29 04:41:32;;;;;;;14.70;6.43;;;16.80;99.90;;;;;;5035749;28;20059;-85
2023/09/29 04:43:57;;;;;;;11.57;5.90;;;16.80;99.90;;;;;;5035537;28;20042;-87
2023/09/29 04:46:23;;;;;;;13.70;6.25;;;16.80;99.90;;;;;;5034818;28;20056;-81
2023/09/29 04:48:53;;;;;;;12.73;6.75;;;16.80;99.90;;;;;;5035383;28;20106;-82
2023/09/29 04:51:18;;;;;;;11.98;6.40;;;16.80;99.90;;;;;;5034147;28;20057;-82
2023/09/29 04:53:45;;;;;;;11.88;6.10;;;16.80;99.90;;;;;;5035194;28;20049;-82
2023/09/29 04:56:11;;;;;;;10.00;6.00;;;16.80;99.90;;;;;;5035590;28;20623;-84
2023/09/29 04:58:37;;;;;;;12.18;5.97;;;16.80;99.90;;;;;;5034009;28;20045;-86
2023/09/29 05:01:03;;;;;;;11.43;6.28;;;16.90;99.90;;;;;;5035444;28;20050;-84
2023/09/29 05:03:28;;;;;;;11.82;7.22;;;16.90;99.90;;;;;;5034844;28;20053;-82
2023/09/29 05:05:54;;;;;;;17.20;6.57;;;16.90;99.90;;;;;;5034958;28;20081;-80
2023/09/29 05:08:20;;;;;;;12.43;7.35;;;16.90;99.90;;;;;;5034970;28;20079;-83
2023/09/29 05:10:45;;;;;;;10.13;6.68;;;17.00;99.90;;;;;;5034500;28;20049;-83
2023/09/29 05:13:11;;;;;;;10.60;6.65;;;17.00;99.90;;;;;;5034172;28;20048;-82
2023/09/29 05:15:37;;;;;;;20.33;7.97;;;16.90;99.90;;;;;;5034072;28;20041;-85
2023/09/29 05:18:03;;;;;;;10.95;6.70;;;16.90;99.90;;;;;;5032692;28;20443;-83
2023/09/29 05:20:29;;;;;;;14.05;6.50;;;16.90;99.90;;;;;;5033682;28;20042;-84
2023/09/29 05:22:55;;;;;;;15.85;6.65;;;16.90;99.90;;;;;;5035335;28;20099;-83
2023/09/29 05:25:21;;;;;;;9.38;5.78;;;17.00;99.90;;;;;;5034891;28;20050;-83
2023/09/29 05:27:47;;;;;;;11.40;7.03;;;17.00;99.90;;;;;;5033871;28;20048;-85
2023/09/29 05:30:12;;;;;;;9.18;6.35;;;17.10;99.90;;;;;;5034410;28;20128;-84
2023/09/29 05:32:38;;;;;;;12.18;6.72;;;17.10;99.90;;;;;;5034420;28;20041;-82
2023/09/29 05:35:05;;;;;;;12.82;7.13;;;17.10;99.90;;;;;;5034326;28;20176;-84
2023/09/29 05:37:31;;;;;;;11.43;6.35;;;17.10;99.90;;;;;;5034619;28;20049;-83
2023/09/29 05:40:02;;;;;;;9.90;6.47;;;17.20;99.90;;;;;;5034004;28;20060;-82
2023/09/29 05:42:28;;;;;;;12.95;7.18;;;17.20;99.90;;;;;;5033713;28;20053;-84
2023/09/29 05:44:54;;;;;;;12.50;7.22;;;17.20;99.90;;;;;;5034409;28;20049;-86
2023/09/29 05:47:20;;;;;;;15.90;6.85;;;17.20;99.90;;;;;;5034166;28;20052;-80
2023/09/29 05:49:46;;;;;;;15.38;7.07;;;17.20;99.90;;;;;;5033992;28;20116;-83
2023/09/29 05:52:12;;;;;;;12.32;7.68;;;17.20;99.90;;;;;;5033566;28;20076;-82
2023/09/29 05:54:37;;;;;;;12.48;6.75;;;17.20;99.90;;;;;;5034123;28;20041;-84
2023/09/29 05:57:03;;;;;;;10.15;6.60;;;17.20;99.90;;;;;;5034312;28;20536;-83
2023/09/29 05:59:29;;;;;;;11.48;7.05;;;17.20;99.90;;;;;;5033844;28;20111;-85
2023/09/29 06:01:56;;;;;;;14.10;7.47;;;17.20;99.90;;;;;;5038767;28;20045;-86
2023/09/29 06:04:22;;;;;;;12.63;7.38;;;17.20;99.90;;;;;;5023163;28;20056;-84
2023/09/29 06:06:48;;;;;;;9.55;6.28;;;17.20;99.90;;;;;;5039775;28;20045;-85
2023/09/29 06:09:13;;;;;;;10.70;6.68;;;17.20;99.90;;;;;;5034749;28;20442;-80
2023/09/29 06:11:39;;;;;;;12.02;7.43;;;17.20;99.90;;;;;;5034394;28;20056;-80
2023/09/29 06:14:06;;;;;;;14.38;7.22;;;17.20;99.90;;;;;;5043460;28;20033;-78
2023/09/29 06:16:32;;;;;;;11.75;6.60;;;17.20;99.90;;;;;;5055074;28;20045;-80
2023/09/29 06:18:58;;;;;;;7.38;6.50;;;17.20;99.90;;;;;;5034212;28;20046;-80
2023/09/29 06:21:24;;;;;;;10.85;6.95;;;17.20;99.90;;;;;;5034171;28;20048;-81
2023/09/29 06:23:49;;;;;;;14.13;6.80;;;17.10;99.90;;;;;;5034067;28;20086;-79
2023/09/29 06:26:15;;;;;;;9.65;6.82;;;17.10;99.90;;;;;;5034300;28;20072;-86
2023/09/29 06:28:41;;;;;;;11.20;6.68;;;17.10;99.90;;;;;;5033271;28;20080;-83
2023/09/29 06:31:07;;;;;;;9.90;6.53;;;17.10;99.90;;;;;;5033483;28;20481;-81
2023/09/29 06:33:33;;;;;;;14.20;5.97;;;17.10;99.90;;;;;;5033527;28;20042;-82
2023/09/29 06:35:58;;;;;;;11.60;6.45;;;17.10;99.90;;;;;;5034023;28;20057;-83
2023/09/29 06:38:24;;;;;;;10.88;6.18;;;17.10;99.90;;;;;;5033095;28;20519;-85
2023/09/29 06:40:51;;;;;;;15.68;7.03;;;17.10;99.90;;;;;;5033557;28;20072;-82
2023/09/29 06:43:17;;;;;;;6.60;5.75;;;17.20;99.90;;;;;;5033542;28;20045;-84
2023/09/29 06:45:43;;;;;;;10.10;5.90;;;17.20;99.90;;;;;;5033652;28;20444;-86
2023/09/29 06:48:08;;;;;;;8.32;5.85;;;17.20;99.90;;;;;;5032145;28;20045;-82
2023/09/29 06:50:34;;;;;;;10.38;6.00;;;17.20;99.90;;;;;;5032027;28;20140;-85
2023/09/29 06:53:00;;;;;;;6.90;5.13;;;17.20;99.90;;;;;;5033272;28;20041;-82
2023/09/29 06:55:25;;;;;;;11.75;6.03;;;17.20;99.90;;;;;;5033082;28;20045;-85
2023/09/29 06:57:51;;;;;;;8.85;5.28;;;17.20;99.90;;;;;;5033042;28;20061;-85
2023/09/29 07:00:18;;;;;;;7.50;5.05;;;17.20;99.90;;;;;;5033052;28;20037;-83
2023/09/29 07:02:44;;;;;;;7.82;4.43;;;17.30;99.90;;;;;;5033250;28;20045;-84
2023/09/29 07:05:10;;;;;;;7.25;5.25;;;17.30;99.90;;;;;;5032275;28;20045;-84
2023/09/29 07:07:36;;;;;;;8.13;5.20;;;17.40;99.90;;;;;;5031764;28;20095;-82
2023/09/29 07:10:02;;;;;;;6.05;5.05;;;17.50;99.90;;;;;;5031519;28;20107;-83
2023/09/29 07:12:28;;;;;;;7.13;5.57;;;17.50;99.90;;;;;;5031894;28;20045;-82
2023/09/29 07:14:53;;;;;;;8.98;6.07;;;17.70;99.90;;;;;;5031647;28;20049;-78
2023/09/29 07:17:19;;;;;;;8.63;5.13;;;17.80;99.90;;;;;;5031164;28;20511;-83
2023/09/29 07:19:46;;;;;;;10.38;5.10;;;17.80;99.90;;;;;;5031439;28;20124;-82
2023/09/29 07:22:12;;;;;;;8.35;4.55;;;17.90;99.90;;;;;;5032399;28;20049;-81
2023/09/29 07:24:40;;;;;;;8.80;4.90;;;18.00;99.90;;;;;;5031684;28;20041;-82
2023/09/29 07:27:08;;;;;;;6.90;4.45;;;18.00;99.90;;;;;;5032528;28;20049;-81
2023/09/29 07:29:34;;;;;;;8.50;4.97;;;18.10;99.90;;;;;;5032515;28;20041;-81
2023/09/29 07:32:00;;;;;;;9.00;4.43;;;18.20;99.90;;;;;;5032553;28;20469;-81
2023/09/29 07:34:27;;;;;;;7.20;4.70;;;18.30;99.90;;;;;;5032599;28;20061;-81
2023/09/29 07:36:53;;;;;;;5.90;4.68;;;18.30;99.90;;;;;;5032605;28;20099;-85
2023/09/29 07:39:20;;;;;;;7.38;4.60;;;18.30;99.90;;;;;;5032566;28;20060;-87
2023/09/29 07:41:46;;;;;;;8.23;5.13;;;18.30;99.90;;;;;;5032254;28;20102;-82
2023/09/29 07:44:12;;;;;;;5.65;4.95;;;18.30;99.90;;;;;;5031813;28;20080;-82
2023/09/29 07:46:38;;;;;;;8.38;4.68;;;18.50;99.90;;;;;;5031991;28;20076;-85
2023/09/29 07:49:04;;;;;;;7.07;3.90;;;18.50;99.90;;;;;;5032458;28;20045;-82
2023/09/29 07:51:30;;;;;;;5.80;4.65;;;18.70;99.90;;;;;;5032180;28;20095;-83
2023/09/29 07:53:59;;;;;;;6.03;4.13;;;18.90;99.90;;;;;;5032238;28;20080;-81
2023/09/29 07:56:25;;;;;;;7.30;4.18;;;19.20;99.90;;;;;;5032757;28;20042;-83
2023/09/29 07:58:52;;;;;;;5.10;4.50;;;19.40;99.90;;;;;;5032636;28;20092;-82
2023/09/29 08:01:18;;;;;;;6.70;4.93;;;19.50;99.90;;;;;;5032424;28;20125;-81
2023/09/29 08:03:44;;;;;;;6.88;4.38;;;19.60;99.90;;;;;;5031828;28;20093;-79
2023/09/29 08:06:10;;;;;;;6.45;3.75;;;19.70;99.90;;;;;;5030940;28;20558;-79
2023/09/29 08:08:36;;;;;;;7.22;4.07;;;19.70;99.90;;;;;;5032051;28;20125;-84
2023/09/29 08:11:02;;;;;;;6.53;4.03;;;19.60;99.90;;;;;;5032433;28;20466;-81
2023/09/29 08:13:28;;;;;;;4.68;4.13;;;19.80;99.90;;;;;;5032536;28;20057;-81
2023/09/29 08:15:53;;;;;;;7.80;3.90;;;20.30;99.90;;;;;;5033770;28;20502;-82
2023/09/29 08:18:19;;;;;;;9.15;3.67;;;21.00;99.90;;;;;;5031020;28;20388;-86
2023/09/29 08:20:46;;;;;;;5.57;3.92;;;21.20;99.90;;;;;;5031869;28;20119;-83
2023/09/29 08:23:12;;;;;;;6.95;4.85;;;21.50;99.90;;;;;;5031962;28;20053;-80
2023/09/29 08:25:38;;;;;;;5.72;3.78;;;22.00;99.90;;;;;;5030851;28;20045;-86
2023/09/29 08:28:06;;;;;;;7.25;4.20;;;22.40;99.90;;;;;;5032341;28;20046;-84
2023/09/29 08:30:31;;;;;;;7.70;3.42;;;22.70;99.90;;;;;;5031690;28;20041;-81
2023/09/29 08:32:57;;;;;;;6.95;3.67;;;22.90;99.90;;;;;;5032212;28;20096;-82
2023/09/29 08:35:23;;;;;;;5.97;3.55;;;23.00;99.90;;;;;;5030559;28;20054;-84
2023/09/29 08:37:49;;;;;;;5.20;3.58;;;23.00;99.90;;;;;;5031638;28;20049;-84
2023/09/29 08:40:19;;;;;;;4.13;3.10;;;23.20;99.90;;;;;;5032185;28;20054;-82
2023/09/29 08:42:51;;;;;;;10.15;3.60;;;23.20;99.90;;;;;;5032010;28;20493;-82
2023/09/29 08:45:17;;;;;;;4.20;3.40;;;23.50;99.90;;;;;;5032231;28;20057;-79
2023/09/29 08:47:53;;;;;;;4.80;3.35;;;23.70;99.90;;;;;;5031782;28;20052;-80
2023/09/29 08:50:21;;;;;;;5.32;3.13;;;23.70;99.90;;;;;;5032097;28;20034;-80
2023/09/29 08:52:49;;;;;;;5.05;3.67;;;24.00;99.90;;;;;;5033446;28;20146;-85
2023/09/29 08:55:16;;;;;;;4.40;3.05;;;24.20;99.90;;;;;;5035911;28;20076;-81
2023/09/29 08:57:43;;;;;;;4.90;3.00;;;24.00;99.90;;;;;;5034516;28;20058;-83
2023/09/29 09:00:13;;;;;;;4.78;3.55;;;24.10;99.90;;;;;;5035326;28;20044;-85
2023/09/29 09:02:43;;;;;;;4.82;3.15;;;24.20;99.90;;;;;;5035838;28;20120;-81
2023/09/29 09:05:12;;;;;;;4.00;2.78;;;24.40;99.90;;;;;;5034269;28;20063;-81
2023/09/29 09:07:42;;;;;;;4.40;2.83;;;24.30;99.90;;;;;;5017688;28;20053;-83
2023/09/29 09:10:09;;;;;;;5.10;3.53;;;24.50;99.90;;;;;;5034973;28;20041;-81
2023/09/29 09:12:37;;;;;;;3.40;2.33;;;24.40;99.90;;;;;;5035058;28;20046;-84
2023/09/29 09:15:04;;;;;;;5.78;2.60;;;24.10;99.90;;;;;;5034928;28;20084;-83
2023/09/29 09:17:30;;;;;;;5.22;3.13;;;23.70;99.90;;;;;;5033872;28;20505;-83
2023/09/29 09:19:56;;;;;;;4.97;2.70;;;23.40;99.90;;;;;;5034889;28;20052;-82
2023/09/29 09:22:27;;;;;;;4.75;3.30;;;23.20;99.90;;;;;;5033798;28;20053;-86
2023/09/29 09:25:00;;;;;;;4.78;2.88;;;23.00;99.90;;;;;;5034962;28;20053;-84
2023/09/29 09:27:35;;;;;;;4.32;2.88;;;22.90;99.90;;;;;;5034720;28;20042;-87
2023/09/29 09:30:01;;;;;;;4.80;3.53;;;22.70;99.90;;;;;;5034448;28;20044;-84
2023/09/29 09:32:27;;;;;;;3.92;2.97;;;22.60;99.90;;;;;;5034689;28;20045;-90
2023/09/29 09:34:53;;;;;;;4.18;3.22;;;22.60;99.90;;;;;;5034456;28;20524;-85
2023/09/29 09:37:26;;;;;;;5.88;3.25;;;22.70;99.90;;;;;;5034300;28;20172;-76
2023/09/29 09:39:55;;;;;;;;;;;22.70;99.90;;;;;;5035466;28;20053;-87
2023/09/29 09:42:25;;;;;;;4.13;2.92;;;23.00;99.90;;;;;;5034631;28;19928;-89
2023/09/29 09:44:53;;;;;;;4.30;2.72;;;23.50;99.90;;;;;;5034287;28;20121;-87
2023/09/29 09:47:20;;;;;;;5.60;2.97;;;24.00;99.90;;;;;;5034626;28;20049;-82
2023/09/29 09:49:48;;;;;;;6.60;3.30;;;24.60;99.90;;;;;;5034181;28;20460;-89
2023/09/29 09:52:29;;;;;;;3.85;2.60;;;24.60;99.90;;;;;;5033064;28;20478;-80
2023/09/29 09:54:58;;;;;;;7.30;3.05;;;24.60;99.90;;;;;;5034715;28;20053;-84
2023/09/29 09:57:31;;;;;;;4.85;2.97;;;25.10;99.90;;;;;;5034133;28;20106;-80
2023/09/29 10:00:06;;;;;;;4.03;3.00;;;25.20;99.90;;;;;;5034181;28;20517;-82
2023/09/29 10:02:33;;;;;;;3.78;2.70;;;25.60;99.90;;;;;;5034104;28;20487;-86
2023/09/29 10:05:00;;;;;;;5.60;2.95;;;26.30;99.90;;;;;;5033192;28;20041;-83
2023/09/29 10:07:26;;;;;;;7.40;3.05;;;26.00;99.90;;;;;;5034506;28;20052;-83
2023/09/29 10:09:51;;;;;;;5.03;2.72;;;25.90;99.90;;;;;;5033631;28;20046;-86
2023/09/29 10:12:23;;;;;;;4.50;3.08;;;25.80;99.90;;;;;;5033366;28;20060;-85
2023/09/29 10:14:49;;;;;;;3.60;2.83;;;24.90;99.90;;;;;;5034733;28;20396;-85
2023/09/29 10:17:14;;;;;;;3.80;2.80;;;24.50;99.90;;;;;;5034079;28;20045;-81
2023/09/29 10:19:40;;;;;;;5.03;3.22;;;24.10;99.90;;;;;;5033856;28;20052;-82
2023/09/29 10:22:07;;;;;;;4.30;3.15;;;23.80;99.90;;;;;;5033344;28;20120;-83
2023/09/29 10:24:33;;;;;;;5.07;2.90;;;23.40;99.90;;;;;;5033071;28;20378;-82
2023/09/29 10:27:02;;;;;;;4.22;2.95;;;23.10;99.90;;;;;;5032447;28;20057;-80
2023/09/29 10:29:29;;;;;;;4.25;3.20;;;23.10;99.90;;;;;;5032168;28;20049;-83
2023/09/29 10:32:10;;;;;;;4.75;3.10;;;23.00;99.90;;;;;;5033771;28;20054;-84
2023/09/29 10:34:37;;;;;;;4.88;3.05;;;22.90;99.90;;;;;;5033173;28;20071;-85
2023/09/29 10:37:03;;;;;;;4.15;3.50;;;22.80;99.90;;;;;;5033337;28;20050;-78
2023/09/29 10:39:29;;;;;;;4.57;3.30;;;22.70;99.90;;;;;;5033184;28;20100;-81
2023/09/29 10:42:12;;;;;;;5.72;3.55;;;22.60;99.90;;;;;;5033575;28;20056;-80
2023/09/29 10:44:55;;;;;;;4.00;3.38;;;22.50;99.90;;;;;;5033814;28;20080;-81
2023/09/29 10:47:34;;;;;;;5.35;3.28;;;22.50;99.90;;;;;;5033298;28;20206;-83
2023/09/29 10:50:10;;;;;;;4.90;3.40;;;22.50;99.90;;;;;;5033452;28;20547;-80
2023/09/29 10:52:35;;;;;;;4.82;3.22;;;22.40;99.90;;;;;;5033162;28;20053;-81
2023/09/29 10:55:04;;;;;;;4.70;3.00;;;22.30;99.90;;;;;;5032251;28;20050;-80
2023/09/29 10:57:30;;;;;;;5.55;3.05;;;22.20;99.90;;;;;;5033617;28;20049;-81
2023/09/29 10:59:59;;;;;;;5.32;3.65;;;22.20;99.90;;;;;;5033024;28;20493;-73
2023/09/29 11:02:33;;;;;;;6.03;3.40;;;22.20;99.90;;;;;;5033289;28;20053;-74
2023/09/29 11:05:10;;;;;;;6.80;3.53;;;22.10;99.90;;;;;;5032598;28;20050;-75
2023/09/29 11:07:50;;;;;;;7.68;3.78;;;22.00;99.90;;;;;;5033164;28;20080;-74
2023/09/29 11:10:17;;;;;;;6.10;4.00;;;21.90;99.90;;;;;;5032502;28;20041;-74
2023/09/29 11:12:47;;;;;;;6.45;4.20;;;21.90;99.90;;;;;;5015218;28;20549;-74
2023/09/29 11:15:17;;;;;;;6.47;3.95;;;21.90;99.90;;;;;;5032025;28;20041;-76
2023/09/29 11:17:47;;;;;;;7.15;3.72;;;21.90;99.90;;;;;;5031413;28;20138;-77
2023/09/29 11:20:27;;;;;;;7.47;4.03;;;21.90;99.90;;;;;;5032467;28;20133;-77
2023/09/29 11:23:07;;;;;;;4.25;3.53;;;21.90;99.90;;;;;;5032647;28;20057;-77
2023/09/29 11:25:59;;;;;;;6.13;4.47;;;21.90;99.90;;;;;;5031662;28;20052;-79
2023/09/29 11:28:28;;;;;;;6.05;4.13;;;21.80;99.90;;;;;;5032674;28;20049;-78
2023/09/29 11:30:54;;;;;;;6.97;4.82;;;21.80;99.90;;;;;;5032082;28;20042;-77
2023/09/29 11:33:21;;;;;;;8.05;4.32;;;21.80;99.90;;;;;;5032173;28;20581;-79
2023/09/29 11:35:47;;;;;;;5.47;4.22;;;21.70;99.90;;;;;;5031945;28;20092;-78
2023/09/29 11:38:20;;;;;;;6.88;4.75;;;21.70;99.90;;;;;;5032244;28;20067;-75
2023/09/29 11:40:48;;;;;;;6.68;4.82;;;21.60;99.90;;;;;;5031684;28;20053;-80
2023/09/29 11:43:14;;;;;;;9.18;4.50;;;21.60;99.90;;;;;;5032082;28;20045;-78
2023/09/29 11:45:40;;;;;;;6.15;4.53;;;21.50;99.90;;;;;;5031353;28;20439;-77
2023/09/29 11:48:06;;;;;;;6.82;4.38;;;21.50;99.90;;;;;;5031798;28;20120;-76
2023/09/29 11:50:33;;;;;;;8.73;4.80;;;21.50;99.90;;;;;;5031985;28;20482;-72
2023/09/29 11:53:03;;;;;;;4.90;4.18;;;21.40;99.90;;;;;;5032195;28;20041;-73
2023/09/29 11:55:29;;;;;;;4.93;4.43;;;21.40;99.90;;;;;;5032097;28;20101;-72
2023/09/29 11:57:55;;;;;;;8.15;5.10;;;21.30;99.90;;;;;;5030691;28;20045;-83
2023/09/29 12:00:21;;;;;;;6.85;4.53;;;21.30;99.90;;;;;;5031047;28;20458;-81
2023/09/29 12:02:46;;;;;;;7.95;4.65;;;21.20;99.90;;;;;;5032054;28;20052;-79
2023/09/29 12:05:12;;;;;;;6.95;4.47;;;21.20;99.90;;;;;;5032589;28;20041;-81
2023/09/29 12:07:38;;;;;;;8.07;4.53;;;21.10;99.90;;;;;;5030479;28;20451;-83
2023/09/29 12:10:04;;;;;;;6.85;4.78;;;21.10;99.90;;;;;;5032049;28;20061;-82
2023/09/29 12:12:32;;;;;;;6.00;4.80;;;21.00;99.90;;;;;;5032018;28;20087;-80
2023/09/29 12:14:58;;;;;;;6.40;5.00;;;21.00;99.90;;;;;;5031969;28;20049;-82
2023/09/29 12:17:24;;;;;;;5.82;5.00;;;21.00;99.90;;;;;;5031788;28;20482;-80
2023/09/29 12:19:49;;;;;;;7.05;5.55;;;21.20;99.90;;;;;;5031919;28;20116;-80
2023/09/29 12:22:15;;;;;;;6.93;4.70;;;21.20;99.90;;;;;;5031946;28;20065;-80
2023/09/29 12:24:41;;;;;;;7.47;5.18;;;21.30;99.90;;;;;;5032161;28;20467;-81
2023/09/29 12:27:10;;;;;;;6.80;4.55;;;21.30;99.90;;;;;;5033481;28;20168;-80
2023/09/29 12:29:35;;;;;;;7.40;5.30;;;21.40;99.90;;;;;;5035902;28;20088;-80
2023/09/29 12:32:01;;;;;;;5.72;4.78;;;21.50;99.90;;;;;;5035705;28;20049;-80
2023/09/29 12:34:32;;;;;;;5.82;4.97;;;21.60;99.90;;;;;;5035456;28;20057;-80
2023/09/29 12:37:02;;;;;;;6.03;5.28;;;21.70;99.90;;;;;;5035496;28;20164;-81
2023/09/29 12:39:28;;;;;;;6.95;4.45;;;21.60;99.90;;;;;;5035397;28;20478;-82
2023/09/29 12:41:54;;;;;;;5.22;4.72;;;21.60;99.90;;;;;;5035202;28;20502;-81